Time;durP1;ratioP1;P1;durP2;ratioP2;P2;SDS_P1;SDS_P2;PMS_P1;PMS_P2;Temp;Humidity;BMP_temperature;BMP_pressure;BME280_temperature;BME280_humidity;BME280_pressure;Samples;Min_cycle;Max_cycle;Signal;HPM_P1;HPM_P2
2022/01/31 00:00:06;;;;;;;0.60;0.60;;;;;;;6.55;49.68;101016.88;689764;28;67008;-66
2022/01/31 00:00:35;;;;;;;0.50;0.50;;;;;;;6.54;49.55;101017.88;687307;28;97129;-66
2022/01/31 00:00:56;;;;;;;0.47;0.47;;;;;;;6.57;49.50;101017.59;689083;28;68961;-66
2022/01/31 00:01:18;;;;;;;0.50;0.50;;;;;;;6.59;49.64;101020.13;689810;28;23468;-66
2022/01/31 00:01:39;;;;;;;0.65;0.65;;;;;;;6.55;49.51;101010.66;691217;28;21564;-66
2022/01/31 00:02:01;;;;;;;0.60;0.60;;;;;;;6.55;49.21;101016.03;691033;28;23439;-66
2022/01/31 00:02:22;;;;;;;0.60;0.60;;;;;;;6.55;49.67;101016.88;690189;28;40348;-66
2022/01/31 00:02:45;;;;;;;0.50;0.50;;;;;;;6.55;49.74;101016.88;689906;28;44095;-66
2022/01/31 00:03:06;;;;;;;0.40;0.40;;;;;;;6.57;49.75;101024.81;689938;28;46345;-66
2022/01/31 00:03:30;;;;;;;0.50;0.50;;;;;;;6.57;49.82;101022.13;690561;28;23501;-66
2022/01/31 00:03:51;;;;;;;0.60;0.60;;;;;;;6.54;49.66;101012.50;686731;28;113715;-66
2022/01/31 00:04:12;;;;;;;0.60;0.60;;;;;;;6.55;49.66;101019.56;690729;28;22457;-66
2022/01/31 00:04:33;;;;;;;0.50;0.50;;;;;;;6.52;49.90;101010.94;689852;28;45232;-66
2022/01/31 00:04:54;;;;;;;0.50;0.50;;;;;;;6.53;49.77;101016.16;690761;28;22426;-66
2022/01/31 00:05:17;;;;;;;0.50;0.50;;;;;;;6.50;49.84;101008.41;691000;28;23265;-66
2022/01/31 00:05:38;;;;;;;0.50;0.50;;;;;;;6.53;49.79;101013.47;689416;28;46340;-66
2022/01/31 00:05:59;;;;;;;0.60;0.60;;;;;;;6.55;49.85;101010.66;690496;28;21571;-66
2022/01/31 00:06:21;;;;;;;0.50;0.50;;;;;;;6.55;49.54;101002.59;689181;28;44396;-66
2022/01/31 00:06:42;;;;;;;0.50;0.50;;;;;;;6.52;49.59;101006.44;689211;28;23716;-66
2022/01/31 00:07:04;;;;;;;0.50;0.50;;;;;;;6.52;49.55;101000.22;690168;28;22398;-66
2022/01/31 00:07:25;;;;;;;0.40;0.40;;;;;;;6.47;49.46;100995.28;689922;28;49874;-66
2022/01/31 00:07:46;;;;;;;0.50;0.50;;;;;;;6.47;49.33;101001.50;690321;28;23416;-66
2022/01/31 00:08:08;;;;;;;0.60;0.60;;;;;;;6.47;49.49;101001.50;690556;28;21542;-66
2022/01/31 00:08:30;;;;;;;0.60;0.60;;;;;;;6.45;49.76;100994.59;689611;28;44410;-66
2022/01/31 00:08:52;;;;;;;0.50;0.50;;;;;;;6.44;49.75;100993.75;690535;28;23496;-66
2022/01/31 00:09:15;;;;;;;0.50;0.50;;;;;;;6.44;49.79;100993.75;689017;28;69454;-66
2022/01/31 00:09:37;;;;;;;0.40;0.40;;;;;;;6.44;49.71;100993.75;688608;28;70227;-66
2022/01/31 00:09:58;;;;;;;0.57;0.57;;;;;;;6.45;49.90;100990.06;690066;28;45623;-66
2022/01/31 00:10:27;;;;;;;0.60;0.60;;;;;;;6.47;50.21;100989.91;691062;28;23426;-66
2022/01/31 00:10:49;;;;;;;0.50;0.50;;;;;;;6.49;50.18;100979.91;686228;28;138629;-66
2022/01/31 00:11:11;;;;;;;0.50;0.50;;;;;;;6.49;50.14;100986.09;689902;28;47468;-66
2022/01/31 00:11:40;;;;;;;0.47;0.47;;;;;;;6.51;50.25;100985.13;689432;28;44716;-66
2022/01/31 00:12:08;;;;;;;0.57;0.57;;;;;;;6.49;50.03;100985.25;686210;28;137698;-66
2022/01/31 00:12:33;;;;;;;0.60;0.60;;;;;;;6.49;50.06;100970.00;686145;28;137326;-66
2022/01/31 00:13:01;;;;;;;0.50;0.50;;;;;;;6.50;49.98;100973.53;687002;28;115310;-66
2022/01/31 00:13:31;;;;;;;0.50;0.50;;;;;;;6.51;49.82;100982.44;686850;28;137966;-66
2022/01/31 00:14:00;;;;;;;0.40;0.40;;;;;;;6.48;49.79;100975.50;686181;28;138355;-66
2022/01/31 00:14:32;;;;;;;0.60;0.60;;;;;;;6.49;49.63;100972.69;686616;28;136283;-66
2022/01/31 00:15:00;;;;;;;0.60;0.60;;;;;;;6.45;49.59;100976.63;686898;28;138519;-66
2022/01/31 00:15:21;;;;;;;0.50;0.50;;;;;;;6.45;49.96;100970.44;685714;28;160152;-66
2022/01/31 00:15:46;;;;;;;0.50;0.50;;;;;;;6.39;50.04;100958.44;690307;28;31327;-66
2022/01/31 00:16:10;;;;;;;0.45;0.45;;;;;;;6.44;49.94;100972.28;686411;28;136482;-66
2022/01/31 00:16:32;;;;;;;0.60;0.60;;;;;;;6.44;50.22;100974.09;688380;28;69445;-66
2022/01/31 00:16:54;;;;;;;0.60;0.60;;;;;;;6.43;49.96;100975.94;688479;28;69475;-66
2022/01/31 00:17:16;;;;;;;0.50;0.50;;;;;;;6.43;49.72;100978.63;690374;28;22404;-66
2022/01/31 00:17:37;;;;;;;0.45;0.45;;;;;;;6.43;49.90;100984.00;690004;28;44401;-66
2022/01/31 00:17:59;;;;;;;0.40;0.40;;;;;;;6.42;50.05;100984.97;690573;28;22408;-66
2022/01/31 00:18:20;;;;;;;0.50;0.50;;;;;;;6.42;49.93;100989.50;690088;28;46301;-66
2022/01/31 00:18:41;;;;;;;0.60;0.60;;;;;;;6.43;50.27;100988.53;689985;28;22449;-66
2022/01/31 00:19:03;;;;;;;0.60;0.60;;;;;;;6.43;50.16;100992.03;689051;28;44404;-66
2022/01/31 00:19:25;;;;;;;0.50;0.50;;;;;;;6.45;50.20;100999.94;690473;28;22248;-66
2022/01/31 00:19:46;;;;;;;0.50;0.50;;;;;;;6.46;50.29;100990.91;690237;28;44959;-66
2022/01/31 00:20:08;;;;;;;0.40;0.40;;;;;;;6.45;50.13;100991.91;690667;28;23491;-66
2022/01/31 00:20:30;;;;;;;0.50;0.50;;;;;;;6.46;50.27;100999.81;690642;28;2460;-66
2022/01/31 00:20:51;;;;;;;0.60;0.60;;;;;;;6.44;50.21;100993.75;689757;28;46434;-66
2022/01/31 00:21:12;;;;;;;0.60;0.60;;;;;;;6.45;50.15;100989.22;690274;28;21309;-66
2022/01/31 00:21:33;;;;;;;0.50;0.50;;;;;;;6.43;50.23;100992.03;690538;28;22413;-66
2022/01/31 00:21:54;;;;;;;0.50;0.50;;;;;;;6.45;50.12;101000.78;690126;28;22402;-66
2022/01/31 00:22:16;;;;;;;0.40;0.40;;;;;;;6.46;50.24;100989.06;689315;28;46339;-66
2022/01/31 00:22:38;;;;;;;0.57;0.57;;;;;;;6.49;50.35;100983.41;689206;28;45275;-66
2022/01/31 00:22:59;;;;;;;0.60;0.60;;;;;;;6.48;49.97;100973.66;690440;28;21612;-66
2022/01/31 00:23:21;;;;;;;0.60;0.60;;;;;;;6.46;50.17;100994.44;690959;28;23547;-66
2022/01/31 00:23:43;;;;;;;0.50;0.50;;;;;;;6.44;50.17;100988.38;688854;28;46329;-66
2022/01/31 00:24:04;;;;;;;0.40;0.40;;;;;;;6.45;49.92;100982.00;690000;28;45268;-66
2022/01/31 00:24:25;;;;;;;0.40;0.40;;;;;;;6.43;50.04;100980.47;690179;28;22389;-66
2022/01/31 00:24:47;;;;;;;0.50;0.50;;;;;;;6.42;50.13;100981.44;690695;28;21537;-66
2022/01/31 00:25:08;;;;;;;0.60;0.60;;;;;;;6.41;50.29;100979.75;689647;28;46328;-66
2022/01/31 00:25:30;;;;;;;0.52;0.52;;;;;;;6.40;50.10;100973.53;690555;28;21548;-66
2022/01/31 00:25:51;;;;;;;0.50;0.50;;;;;;;6.40;50.14;100976.22;690258;28;24200;-66
2022/01/31 00:26:13;;;;;;;0.43;0.43;;;;;;;6.40;50.06;100976.22;688931;28;46372;-66
2022/01/31 00:26:34;;;;;;;0.43;0.43;;;;;;;6.41;50.37;100979.75;690683;28;21649;-66
2022/01/31 00:26:55;;;;;;;0.60;0.60;;;;;;;6.41;50.55;100977.06;690270;28;46348;-66
2022/01/31 00:27:16;;;;;;;0.60;0.60;;;;;;;6.42;50.60;100963.50;690261;28;23387;-66
2022/01/31 00:27:38;;;;;;;0.60;0.60;;;;;;;6.42;50.58;100974.25;690567;28;23465;-66
2022/01/31 00:28:00;;;;;;;0.50;0.50;;;;;;;6.43;50.55;100961.69;689665;28;45131;-66
2022/01/31 00:28:21;;;;;;;0.50;0.50;;;;;;;6.44;50.72;100958.00;689810;28;46450;-66
2022/01/31 00:28:42;;;;;;;0.40;0.40;;;;;;;6.39;50.76;100958.44;690415;28;23413;-66
2022/01/31 00:29:04;;;;;;;0.60;0.60;;;;;;;6.44;50.72;100960.69;686841;28;22433;-66
2022/01/31 00:29:25;;;;;;;0.60;0.60;;;;;;;6.44;50.85;100955.31;687392;28;46360;-66
2022/01/31 00:29:48;;;;;;;0.50;0.50;;;;;;;6.45;50.85;100959.69;686887;28;23462;-66
2022/01/31 00:30:11;;;;;;;0.50;0.50;;;;;;;6.46;50.65;100951.50;686808;28;990;-66
2022/01/31 00:30:32;;;;;;;0.40;0.40;;;;;;;6.46;50.78;100950.66;684541;28;69672;-66
2022/01/31 00:30:54;;;;;;;0.47;0.47;;;;;;;6.45;50.71;100951.66;688286;28;22283;-66
2022/01/31 00:31:15;;;;;;;0.60;0.60;;;;;;;6.49;50.63;100956.59;689485;28;23555;-66
2022/01/31 00:31:36;;;;;;;0.60;0.60;;;;;;;6.47;50.70;100947.84;689878;28;46407;-66
2022/01/31 00:31:57;;;;;;;0.55;0.55;;;;;;;6.48;50.86;100948.69;690756;28;21573;-66
2022/01/31 00:32:18;;;;;;;0.50;0.50;;;;;;;6.47;50.64;100944.28;688922;28;22477;-66
2022/01/31 00:32:41;;;;;;;0.50;0.50;;;;;;;6.47;50.60;100949.66;688952;28;22337;-66
2022/01/31 00:33:03;;;;;;;0.50;0.50;;;;;;;6.47;50.72;100946.97;686768;28;43430;-66
2022/01/31 00:33:24;;;;;;;0.63;0.63;;;;;;;6.45;50.59;100948.97;689109;28;22391;-66
2022/01/31 00:33:45;;;;;;;0.60;0.60;;;;;;;6.44;50.62;100945.44;685757;28;22405;-66
2022/01/31 00:34:07;;;;;;;0.55;0.55;;;;;;;6.41;50.61;100937.69;686163;28;23504;-66
2022/01/31 00:34:28;;;;;;;0.50;0.50;;;;;;;6.41;50.90;100940.38;687278;28;46327;-66
2022/01/31 00:34:49;;;;;;;0.50;0.50;;;;;;;6.43;50.85;100943.75;688181;28;22391;-66
2022/01/31 00:35:10;;;;;;;0.45;0.45;;;;;;;6.42;51.12;100934.00;690460;28;23843;-66
2022/01/31 00:35:33;;;;;;;0.60;0.60;;;;;;;6.43;51.11;100932.19;689388;28;46355;-66
2022/01/31 00:35:54;;;;;;;0.60;0.60;;;;;;;6.44;51.08;100936.53;689285;28;46408;-66
2022/01/31 00:36:15;;;;;;;0.60;0.60;;;;;;;6.43;51.13;100935.69;690663;28;22478;-66
2022/01/31 00:36:36;;;;;;;0.50;0.50;;;;;;;6.42;51.28;100927.78;690229;28;22809;-66
2022/01/31 00:36:58;;;;;;;0.50;0.50;;;;;;;6.41;51.26;100929.63;690203;28;22560;-66
2022/01/31 00:37:28;;;;;;;0.50;0.50;;;;;;;6.42;51.19;100933.16;689107;28;60372;-66
2022/01/31 00:37:49;;;;;;;0.60;0.60;;;;;;;6.42;51.16;100933.16;689586;28;22401;-66
2022/01/31 00:38:11;;;;;;;0.60;0.60;;;;;;;6.41;51.15;100932.31;690027;28;23553;-66
2022/01/31 00:38:32;;;;;;;0.52;0.52;;;;;;;6.43;51.27;100943.75;689556;28;46375;-66
2022/01/31 00:38:53;;;;;;;0.50;0.50;;;;;;;6.42;51.34;100931.31;690153;28;22550;-66
2022/01/31 00:39:14;;;;;;;0.50;0.50;;;;;;;6.43;51.30;100926.81;690925;28;21391;-66
2022/01/31 00:39:36;;;;;;;0.50;0.50;;;;;;;6.42;51.41;100927.78;689579;28;46306;-66
2022/01/31 00:39:58;;;;;;;0.65;0.65;;;;;;;6.42;51.26;100930.47;691553;28;16110;-66
2022/01/31 00:40:20;;;;;;;0.60;0.60;;;;;;;6.42;51.19;100933.16;689959;28;44398;-66
2022/01/31 00:40:42;;;;;;;0.50;0.50;;;;;;;6.43;51.44;100932.19;689374;28;47634;-66
2022/01/31 00:41:03;;;;;;;0.50;0.50;;;;;;;6.44;51.49;100933.84;690369;28;24364;-66
2022/01/31 00:41:25;;;;;;;0.40;0.40;;;;;;;6.45;51.56;100930.19;688148;28;46392;-66
2022/01/31 00:41:46;;;;;;;0.50;0.50;;;;;;;6.39;51.78;100928.91;689862;28;46296;-66
2022/01/31 00:42:08;;;;;;;0.60;0.60;;;;;;;6.45;51.50;100930.19;690550;28;23440;-66
2022/01/31 00:42:30;;;;;;;0.60;0.60;;;;;;;6.46;51.64;100931.88;687508;28;23501;-66
2022/01/31 00:42:53;;;;;;;0.50;0.50;;;;;;;6.43;51.54;100921.44;682111;28;67326;-66
2022/01/31 00:43:17;;;;;;;0.50;0.50;;;;;;;6.42;51.77;100919.75;684085;28;44217;-66
2022/01/31 00:43:38;;;;;;;0.40;0.40;;;;;;;6.40;51.68;100922.56;684068;28;92273;-66
2022/01/31 00:44:02;;;;;;;0.52;0.52;;;;;;;6.39;51.78;100926.22;686303;28;23112;-66
2022/01/31 00:44:28;;;;;;;0.60;0.60;;;;;;;6.39;52.09;100926.22;684529;28;93039;-66
2022/01/31 00:44:58;;;;;;;0.60;0.60;;;;;;;6.39;52.04;100922.72;688461;28;136553;-66
2022/01/31 00:45:24;;;;;;;0.50;0.50;;;;;;;6.39;51.96;100926.22;688952;28;137639;-66
2022/01/31 00:45:57;;;;;;;0.40;0.40;;;;;;;6.40;52.08;100925.25;686719;28;137957;-66
2022/01/31 00:46:23;;;;;;;0.60;0.60;;;;;;;6.41;52.13;100940.38;686427;28;137481;-66
2022/01/31 00:46:50;;;;;;;0.60;0.60;;;;;;;6.44;52.25;100923.13;687805;28;137336;-66
2022/01/31 00:47:20;;;;;;;0.50;0.50;;;;;;;6.40;52.28;100927.94;687545;28;137973;-66
2022/01/31 00:47:47;;;;;;;0.50;0.50;;;;;;;6.41;52.04;100918.91;686885;28;135909;-66
2022/01/31 00:48:18;;;;;;;0.50;0.50;;;;;;;6.38;52.26;100921.00;688573;28;138185;-66
2022/01/31 00:48:43;;;;;;;0.60;0.60;;;;;;;6.37;52.42;100908.63;689521;28;136143;-66
2022/01/31 00:49:05;;;;;;;0.50;0.50;;;;;;;6.36;52.32;100905.06;684773;28;116250;-66
2022/01/31 00:49:35;;;;;;;0.50;0.50;;;;;;;6.35;52.49;100913.25;687276;28;46461;-66
2022/01/31 00:50:06;;;;;;;0.43;0.43;;;;;;;6.33;52.62;100910.72;684483;28;137651;-66
2022/01/31 00:50:29;;;;;;;0.60;0.60;;;;;;;6.33;52.78;100905.34;682576;28;138004;-66
2022/01/31 00:50:50;;;;;;;0.60;0.60;;;;;;;6.33;52.51;100905.34;685537;28;67337;-66
2022/01/31 00:51:11;;;;;;;0.50;0.50;;;;;;;6.34;52.79;100914.28;687128;28;22417;-66
2022/01/31 00:51:32;;;;;;;0.50;0.50;;;;;;;6.33;52.89;100913.41;686757;28;45303;-66
2022/01/31 00:51:54;;;;;;;0.50;0.50;;;;;;;6.32;52.90;100909.88;687759;28;17108;-66
2022/01/31 00:52:16;;;;;;;0.60;0.60;;;;;;;6.31;52.89;100913.53;687296;28;44411;-66
2022/01/31 00:52:39;;;;;;;0.70;0.70;;;;;;;6.33;53.02;100905.34;685510;28;45604;-66
2022/01/31 00:53:01;;;;;;;0.60;0.60;;;;;;;6.34;53.00;100912.41;685043;28;68280;-66
2022/01/31 00:53:22;;;;;;;0.50;0.50;;;;;;;6.34;53.05;100908.91;682888;28;46421;-66
2022/01/31 00:53:43;;;;;;;0.50;0.50;;;;;;;6.36;53.01;100920.31;683552;28;21253;-66
2022/01/31 00:54:04;;;;;;;0.40;0.40;;;;;;;6.38;53.00;100913.84;684035;28;23890;-66
2022/01/31 00:54:26;;;;;;;0.55;0.55;;;;;;;6.37;53.01;100906.75;682149;28;22165;-66
2022/01/31 00:54:48;;;;;;;0.60;0.60;;;;;;;6.39;53.09;100917.34;684921;28;47455;-66
2022/01/31 00:55:10;;;;;;;0.60;0.60;;;;;;;6.37;53.18;100911.28;685896;28;22375;-66
2022/01/31 00:55:31;;;;;;;0.50;0.50;;;;;;;6.36;53.01;100915.78;685401;28;68532;-66
2022/01/31 00:55:53;;;;;;;0.50;0.50;;;;;;;6.35;53.18;100918.63;687733;28;23547;-66
2022/01/31 00:56:14;;;;;;;0.50;0.50;;;;;;;6.32;53.24;100911.72;686946;28;43635;-66
2022/01/31 00:56:36;;;;;;;0.60;0.60;;;;;;;6.35;53.23;100910.56;689520;28;44179;-66
2022/01/31 00:56:57;;;;;;;0.60;0.60;;;;;;;6.34;53.47;100915.09;689367;28;45326;-66
2022/01/31 00:57:19;;;;;;;0.60;0.60;;;;;;;6.35;53.34;100910.56;689051;28;47251;-66
2022/01/31 00:57:40;;;;;;;0.60;0.60;;;;;;;6.33;53.48;100910.72;687030;28;46475;-66
2022/01/31 00:58:01;;;;;;;0.50;0.50;;;;;;;6.35;53.54;100907.88;687865;28;23491;-66
2022/01/31 00:58:23;;;;;;;0.50;0.50;;;;;;;6.35;53.39;100913.25;688080;28;23554;-66
2022/01/31 00:58:45;;;;;;;0.57;0.57;;;;;;;6.37;53.38;100916.66;686979;28;46396;-66
2022/01/31 00:59:06;;;;;;;0.70;0.70;;;;;;;6.39;53.51;100915.50;684836;28;46429;-66
2022/01/31 00:59:27;;;;;;;0.60;0.60;;;;;;;6.39;53.35;100912.81;685982;28;23822;-66
2022/01/31 00:59:51;;;;;;;0.60;0.60;;;;;;;6.38;53.41;100913.84;688065;28;21529;-66
2022/01/31 01:00:14;;;;;;;0.50;0.50;;;;;;;6.38;53.50;100908.47;682635;28;90351;-66
2022/01/31 01:00:35;;;;;;;0.45;0.45;;;;;;;6.39;53.52;100906.63;684703;28;67594;-66
2022/01/31 01:00:57;;;;;;;0.60;0.60;;;;;;;6.42;53.51;100909.84;684955;28;23463;-66
2022/01/31 01:01:18;;;;;;;0.60;0.60;;;;;;;6.42;53.46;100907.16;685017;28;44400;-66
2022/01/31 01:01:39;;;;;;;0.60;0.60;;;;;;;6.40;53.32;100911.84;684169;28;22401;-66
2022/01/31 01:02:00;;;;;;;0.50;0.50;;;;;;;6.41;53.47;100910.00;680959;29;22418;-66
2022/01/31 01:02:22;;;;;;;0.50;0.50;;;;;;;6.38;53.48;100907.59;681175;29;22498;-66
2022/01/31 01:02:45;;;;;;;0.43;0.43;;;;;;;6.41;53.30;100916.22;680790;28;45335;-66
2022/01/31 01:03:06;;;;;;;0.60;0.60;;;;;;;6.40;53.56;100911.84;682230;28;69480;-66
2022/01/31 01:03:27;;;;;;;0.60;0.60;;;;;;;6.31;53.31;100891.25;682919;28;1941;-66
2022/01/31 01:03:48;;;;;;;0.60;0.60;;;;;;;6.42;53.70;100917.06;685156;28;1746;-66
2022/01/31 01:04:09;;;;;;;0.50;0.50;;;;;;;6.39;53.67;100904.78;686582;28;23721;-66
2022/01/31 01:04:31;;;;;;;0.50;0.50;;;;;;;6.44;53.38;100907.03;683274;28;22360;-66
2022/01/31 01:04:54;;;;;;;0.47;0.47;;;;;;;6.41;53.57;100904.63;681213;28;69445;-66
2022/01/31 01:05:15;;;;;;;0.60;0.60;;;;;;;6.40;53.67;100905.63;682993;28;21532;-66
2022/01/31 01:05:36;;;;;;;0.60;0.60;;;;;;;6.37;53.50;100905.94;685549;28;22352;-66
2022/01/31 01:05:58;;;;;;;0.60;0.60;;;;;;;6.30;53.62;100893.09;684985;28;46314;-66
2022/01/31 01:06:19;;;;;;;0.60;0.60;;;;;;;6.36;53.73;100902.38;684263;28;46435;-66
2022/01/31 01:06:41;;;;;;;0.50;0.50;;;;;;;6.37;53.54;100904.09;685703;28;22403;-66
2022/01/31 01:07:02;;;;;;;0.50;0.50;;;;;;;6.36;53.73;100905.06;686514;28;23313;-66
2022/01/31 01:07:24;;;;;;;0.60;0.60;;;;;;;6.35;53.93;100902.53;684887;28;46369;-66
2022/01/31 01:07:46;;;;;;;0.60;0.60;;;;;;;6.34;53.78;100898.16;682180;28;46279;-66
2022/01/31 01:08:07;;;;;;;0.60;0.60;;;;;;;6.31;53.81;100899.28;682122;28;23486;-66
2022/01/31 01:08:28;;;;;;;0.50;0.50;;;;;;;6.32;53.85;100901.00;679310;29;22393;-66
2022/01/31 01:08:50;;;;;;;0.50;0.50;;;;;;;6.32;53.88;100899.16;679801;29;22556;-66
2022/01/31 01:09:11;;;;;;;0.50;0.50;;;;;;;6.35;53.90;100898.03;679523;28;45438;-66
2022/01/31 01:09:32;;;;;;;0.60;0.60;;;;;;;6.38;53.81;100891.50;684437;28;23350;-66
2022/01/31 01:09:54;;;;;;;0.60;0.60;;;;;;;6.36;53.99;100897.00;687317;28;22455;-66
2022/01/31 01:10:16;;;;;;;0.60;0.60;;;;;;;6.34;53.94;100899.00;689255;28;46235;-66
2022/01/31 01:10:38;;;;;;;0.50;0.50;;;;;;;6.32;54.06;100904.50;690455;28;67497;-66
2022/01/31 01:10:59;;;;;;;0.50;0.50;;;;;;;6.31;53.86;100894.75;690869;28;24328;-66
2022/01/31 01:11:21;;;;;;;0.50;0.50;;;;;;;6.33;53.92;100894.63;687039;28;21903;-66
2022/01/31 01:11:42;;;;;;;0.68;0.68;;;;;;;6.34;53.97;100893.63;687914;28;45234;-66
2022/01/31 01:12:04;;;;;;;0.60;0.60;;;;;;;6.28;53.99;100884.31;685691;28;46349;-66
2022/01/31 01:12:25;;;;;;;0.60;0.60;;;;;;;6.31;54.04;100892.09;684237;28;23561;-66
2022/01/31 01:12:48;;;;;;;0.50;0.50;;;;;;;6.31;54.08;100896.63;684490;28;22363;-66
2022/01/31 01:13:09;;;;;;;0.47;0.47;;;;;;;6.30;54.27;100886.88;682468;28;69541;-66
2022/01/31 01:13:32;;;;;;;0.50;0.50;;;;;;;6.30;54.09;100887.72;684672;28;22472;-66
2022/01/31 01:13:53;;;;;;;0.60;0.60;;;;;;;6.29;54.28;100887.88;684790;28;69476;-66
2022/01/31 01:14:15;;;;;;;0.60;0.60;;;;;;;6.31;54.27;100904.66;684063;28;21485;-66
2022/01/31 01:14:36;;;;;;;0.60;0.60;;;;;;;6.34;54.13;100895.50;682487;28;45208;-66
2022/01/31 01:14:57;;;;;;;0.50;0.50;;;;;;;6.35;54.04;100891.78;683945;28;22447;-66
2022/01/31 01:15:19;;;;;;;0.45;0.45;;;;;;;6.33;54.23;100889.25;685445;28;46341;-66
2022/01/31 01:15:40;;;;;;;0.50;0.50;;;;;;;6.31;54.10;100889.41;688250;28;45257;-66
2022/01/31 01:16:02;;;;;;;0.60;0.60;;;;;;;6.29;54.15;100883.34;689372;28;21537;-66
2022/01/31 01:16:24;;;;;;;0.60;0.60;;;;;;;6.29;54.21;100888.72;687379;28;21530;-66
2022/01/31 01:16:45;;;;;;;0.50;0.50;;;;;;;6.27;54.26;100881.78;687468;28;46371;-66
2022/01/31 01:17:06;;;;;;;0.50;0.50;;;;;;;6.29;54.34;100880.66;688052;28;22285;-66
2022/01/31 01:17:27;;;;;;;0.45;0.45;;;;;;;6.28;54.46;100883.50;686196;28;1046;-66
2022/01/31 01:17:49;;;;;;;0.45;0.45;;;;;;;6.27;54.42;100885.34;686223;28;23489;-66
2022/01/31 01:18:10;;;;;;;0.68;0.68;;;;;;;6.28;54.48;100886.19;685150;28;45268;-66
2022/01/31 01:18:31;;;;;;;0.60;0.60;;;;;;;6.27;54.49;100879.09;683036;28;22410;-66
2022/01/31 01:18:53;;;;;;;0.60;0.60;;;;;;;6.27;54.63;100874.59;679830;29;44429;-66
2022/01/31 01:19:15;;;;;;;0.50;0.50;;;;;;;6.28;54.57;100878.97;677583;29;22014;-66
2022/01/31 01:19:36;;;;;;;0.40;0.40;;;;;;;6.29;54.68;100877.97;676163;29;45150;-66
2022/01/31 01:19:57;;;;;;;0.43;0.43;;;;;;;6.29;54.49;100877.16;676495;29;21513;-66
2022/01/31 01:20:18;;;;;;;0.60;0.60;;;;;;;6.29;54.66;100883.34;678557;29;22415;-66
2022/01/31 01:20:42;;;;;;;0.60;0.60;;;;;;;6.29;54.48;100890.56;680492;29;46749;-66
2022/01/31 01:21:03;;;;;;;0.60;0.60;;;;;;;6.28;54.66;100887.00;680727;28;69378;-66
2022/01/31 01:21:25;;;;;;;0.52;0.52;;;;;;;6.29;54.46;100886.03;684999;28;19985;-66
2022/01/31 01:21:46;;;;;;;0.50;0.50;;;;;;;6.29;54.68;100882.50;686598;28;17359;-66
2022/01/31 01:22:08;;;;;;;0.40;0.40;;;;;;;6.28;54.69;100883.50;681919;28;47183;-66
2022/01/31 01:22:29;;;;;;;0.60;0.60;;;;;;;6.28;54.62;100878.13;680985;28;46923;-66
2022/01/31 01:22:50;;;;;;;0.60;0.60;;;;;;;6.28;54.70;100881.66;686327;28;21537;-66
2022/01/31 01:23:12;;;;;;;0.55;0.55;;;;;;;6.28;54.83;100880.81;688726;28;22416;-66
2022/01/31 01:23:33;;;;;;;0.50;0.50;;;;;;;6.29;54.71;100879.84;684049;28;46361;-66
2022/01/31 01:23:55;;;;;;;0.50;0.50;;;;;;;6.30;54.76;100878.81;685806;28;46181;-66
2022/01/31 01:24:16;;;;;;;0.47;0.47;;;;;;;6.31;54.83;100880.53;687418;28;22395;-66
2022/01/31 01:24:38;;;;;;;0.60;0.60;;;;;;;6.31;54.94;100880.53;686321;28;22478;-66
2022/01/31 01:25:03;;;;;;;0.60;0.60;;;;;;;6.28;54.74;100875.44;684508;28;46377;-66
2022/01/31 01:25:24;;;;;;;0.60;0.60;;;;;;;6.28;54.77;100873.59;681763;28;115953;-66
2022/01/31 01:25:47;;;;;;;0.52;0.52;;;;;;;6.28;55.04;100880.81;684412;28;21227;-66
2022/01/31 01:26:09;;;;;;;0.45;0.45;;;;;;;6.27;54.87;100881.78;681882;28;66389;-66
2022/01/31 01:26:30;;;;;;;0.50;0.50;;;;;;;6.24;55.02;100871.38;681373;28;46281;-66
2022/01/31 01:26:56;;;;;;;0.70;0.70;;;;;;;6.23;55.21;100867.00;679266;28;115043;-66
2022/01/31 01:27:20;;;;;;;0.60;0.60;;;;;;;6.22;55.29;100865.28;679468;28;69478;-66
2022/01/31 01:27:46;;;;;;;0.60;0.60;;;;;;;6.21;55.38;100869.00;680428;28;91057;-66
2022/01/31 01:28:07;;;;;;;0.50;0.50;;;;;;;6.20;55.43;100878.00;680679;28;93152;-66
2022/01/31 01:28:28;;;;;;;0.40;0.40;;;;;;;6.18;55.40;100864.75;682805;28;21523;-66
2022/01/31 01:28:52;;;;;;;0.50;0.50;;;;;;;6.19;55.51;100861.09;679958;28;69440;-66
2022/01/31 01:29:14;;;;;;;0.70;0.70;;;;;;;6.19;55.26;100870.94;682675;28;69324;-66
2022/01/31 01:29:36;;;;;;;0.60;0.60;;;;;;;6.22;55.15;100865.28;683977;28;46467;-66
2022/01/31 01:29:57;;;;;;;0.50;0.50;;;;;;;6.21;55.31;100860.94;684704;28;22401;-66
2022/01/31 01:30:20;;;;;;;0.50;0.50;;;;;;;6.18;55.34;100850.50;684278;28;23031;-66
2022/01/31 01:30:41;;;;;;;0.40;0.40;;;;;;;6.21;55.50;100863.63;684357;28;44959;-66
2022/01/31 01:31:03;;;;;;;0.55;0.55;;;;;;;6.20;55.52;100860.06;682549;28;70227;-66
2022/01/31 01:31:27;;;;;;;0.68;0.68;;;;;;;6.20;55.43;100856.56;683148;28;90260;-66
2022/01/31 01:31:49;;;;;;;0.60;0.60;;;;;;;6.20;55.44;100853.88;685496;28;20859;-66
2022/01/31 01:32:12;;;;;;;0.60;0.60;;;;;;;6.20;55.52;100851.19;683795;28;67475;-66
2022/01/31 01:32:44;;;;;;;0.50;0.50;;;;;;;6.21;55.55;100856.41;684957;28;46443;-66
2022/01/31 01:33:09;;;;;;;0.50;0.50;;;;;;;6.22;55.38;100854.56;683962;28;137562;-66
2022/01/31 01:33:38;;;;;;;0.60;0.60;;;;;;;6.21;55.44;100852.91;682562;28;113607;-66
2022/01/31 01:33:59;;;;;;;0.57;0.57;;;;;;;6.22;55.28;100843.84;679927;28;138174;-66
2022/01/31 01:34:21;;;;;;;0.50;0.50;;;;;;;6.22;55.70;100860.81;682558;28;22243;-67
2022/01/31 01:34:45;;;;;;;0.50;0.50;;;;;;;6.20;55.48;100846.66;680031;29;69231;-66
2022/01/31 01:35:07;;;;;;;0.45;0.45;;;;;;;6.21;55.48;100848.38;681931;28;68947;-66
2022/01/31 01:35:32;;;;;;;0.50;0.50;;;;;;;6.18;55.58;100842.47;679646;29;67561;-66
2022/01/31 01:35:55;;;;;;;0.50;0.50;;;;;;;6.15;55.82;100838.22;677770;29;92394;-66
2022/01/31 01:36:20;;;;;;;0.50;0.50;;;;;;;6.16;55.61;100841.75;678411;28;116001;-66
2022/01/31 01:36:43;;;;;;;0.68;0.68;;;;;;;6.15;55.59;100835.53;680144;28;92342;-66
2022/01/31 01:37:05;;;;;;;0.60;0.60;;;;;;;6.13;55.59;100838.38;678412;29;69450;-66
2022/01/31 01:37:28;;;;;;;0.60;0.60;;;;;;;6.15;55.64;100840.06;677039;29;70271;-66
2022/01/31 01:37:49;;;;;;;0.50;0.50;;;;;;;6.16;55.54;100839.94;678519;29;46439;-66
2022/01/31 01:38:15;;;;;;;0.40;0.40;;;;;;;6.14;55.62;100833.84;681664;28;22379;-66
2022/01/31 01:38:37;;;;;;;0.50;0.50;;;;;;;6.14;55.76;100836.53;678290;28;113737;-66
2022/01/31 01:39:00;;;;;;;0.70;0.70;;;;;;;6.11;55.83;100832.31;682403;28;92397;-66
2022/01/31 01:39:21;;;;;;;0.60;0.60;;;;;;;6.12;55.67;100827.78;688479;28;23456;-66
2022/01/31 01:39:45;;;;;;;0.60;0.60;;;;;;;6.10;55.67;100822.56;686174;28;46369;-66
2022/01/31 01:40:08;;;;;;;0.50;0.50;;;;;;;6.11;55.83;100829.63;682519;28;92296;-66
2022/01/31 01:40:29;;;;;;;0.43;0.43;;;;;;;6.11;55.84;100823.41;684602;28;46293;-66
2022/01/31 01:40:50;;;;;;;0.60;0.60;;;;;;;6.10;55.78;100822.56;684387;28;21521;-66
2022/01/31 01:41:14;;;;;;;0.60;0.60;;;;;;;6.08;55.82;100821.88;681514;28;70247;-66
2022/01/31 01:41:35;;;;;;;0.60;0.60;;;;;;;6.08;56.05;100815.66;678750;28;45250;-66
2022/01/31 01:41:56;;;;;;;0.50;0.50;;;;;;;6.07;55.86;100814.81;677956;29;23464;-66
2022/01/31 01:42:18;;;;;;;0.50;0.50;;;;;;;6.07;56.03;100814.81;678891;29;45086;-66
2022/01/31 01:42:41;;;;;;;0.40;0.40;;;;;;;6.06;55.92;100813.13;681978;28;23097;-66
2022/01/31 01:43:03;;;;;;;0.60;0.60;;;;;;;6.06;56.06;100818.47;678960;28;90729;-66
2022/01/31 01:43:25;;;;;;;0.70;0.70;;;;;;;6.06;55.96;100810.44;680925;28;45267;-66
2022/01/31 01:43:47;;;;;;;0.60;0.60;;;;;;;6.07;56.06;100812.13;680296;28;44403;-66
2022/01/31 01:44:10;;;;;;;0.50;0.50;;;;;;;6.07;55.82;100806.78;679594;28;45209;-66
2022/01/31 01:44:42;;;;;;;0.50;0.50;;;;;;;6.07;55.80;100816.66;678868;29;68397;-66
2022/01/31 01:45:05;;;;;;;0.50;0.50;;;;;;;6.05;55.88;100816.81;675892;29;135971;-66
2022/01/31 01:45:33;;;;;;;0.60;0.60;;;;;;;6.01;56.06;100812.72;678665;28;137904;-66
2022/01/31 01:45:55;;;;;;;0.60;0.60;;;;;;;6.04;56.04;100814.28;683809;28;46348;-66
2022/01/31 01:46:18;;;;;;;0.50;0.50;;;;;;;6.03;56.08;100813.41;682838;28;90261;-66
2022/01/31 01:46:39;;;;;;;0.50;0.50;;;;;;;6.02;55.97;100817.09;688449;28;22530;-66
2022/01/31 01:47:01;;;;;;;0.40;0.40;;;;;;;6.03;56.02;100809.88;685865;28;20861;-66